sensor_id;sensor_type;location;lat;lon;timestamp;temperature;humidity
23540;DHT22;11947;50.810;4.394;2022-11-15T00:27:06;12.30;99.90
23540;DHT22;11947;50.810;4.394;2022-11-15T00:29:34;12.20;99.90
23540;DHT22;11947;50.810;4.394;2022-11-15T00:32:14;12.20;99.90
23540;DHT22;11947;50.810;4.394;2022-11-15T00:34:39;12.20;99.90
23540;DHT22;11947;50.810;4.394;2022-11-15T00:37:06;12.20;99.90
23540;DHT22;11947;50.810;4.394;2022-11-15T00:39:31;12.30;99.90
23540;DHT22;11947;50.810;4.394;2022-11-15T00:41:57;12.30;99.90
23540;DHT22;11947;50.810;4.394;2022-11-15T00:44:23;12.30;99.90
23540;DHT22;11947;50.810;4.394;2022-11-15T00:46:48;12.20;99.90
23540;DHT22;11947;50.810;4.394;2022-11-15T00:49:14;12.30;99.90
23540;DHT22;11947;50.810;4.394;2022-11-15T00:51:40;12.30;99.90
23540;DHT22;11947;50.810;4.394;2022-11-15T00:54:05;12.30;99.90
23540;DHT22;11947;50.810;4.394;2022-11-15T00:56:31;12.40;99.90
23540;DHT22;11947;50.810;4.394;2022-11-15T00:58:57;12.50;99.90
23540;DHT22;11947;50.810;4.394;2022-11-15T01:01:22;12.50;99.90
23540;DHT22;11947;50.810;4.394;2022-11-15T01:03:48;12.40;99.90
23540;DHT22;11947;50.810;4.394;2022-11-15T01:19:10;12.40;99.90
23540;DHT22;11947;50.810;4.394;2022-11-15T01:21:36;12.40;99.90
23540;DHT22;11947;50.810;4.394;2022-11-15T01:24:02;12.40;99.90
23540;DHT22;11947;50.810;4.394;2022-11-15T01:26:28;12.60;99.90
23540;DHT22;11947;50.810;4.394;2022-11-15T01:28:53;12.50;99.90
23540;DHT22;11947;50.810;4.394;2022-11-15T01:31:21;12.40;99.90
23540;DHT22;11947;50.810;4.394;2022-11-15T01:33:47;12.40;99.90
23540;DHT22;11947;50.810;4.394;2022-11-15T01:36:15;12.40;99.90
23540;DHT22;11947;50.810;4.394;2022-11-15T01:38:41;12.40;99.90
23540;DHT22;11947;50.810;4.394;2022-11-15T01:41:17;12.40;99.90
23540;DHT22;11947;50.810;4.394;2022-11-15T01:43:43;12.40;99.90
23540;DHT22;11947;50.810;4.394;2022-11-15T01:46:31;12.60;99.90
23540;DHT22;11947;50.810;4.394;2022-11-15T01:49:05;12.40;99.90
23540;DHT22;11947;50.810;4.394;2022-11-15T01:51:33;12.30;99.90
23540;DHT22;11947;50.810;4.394;2022-11-15T01:54:04;12.40;99.90
23540;DHT22;11947;50.810;4.394;2022-11-15T01:56:33;12.50;99.90
23540;DHT22;11947;50.810;4.394;2022-11-15T01:59:03;12.60;99.90
23540;DHT22;11947;50.810;4.394;2022-11-15T02:01:31;12.50;99.90
23540;DHT22;11947;50.810;4.394;2022-11-15T02:04:12;12.50;99.90
23540;DHT22;11947;50.810;4.394;2022-11-15T02:06:39;12.60;99.90
23540;DHT22;11947;50.810;4.394;2022-11-15T02:09:06;12.60;99.90
23540;DHT22;11947;50.810;4.394;2022-11-15T02:11:31;12.60;99.90
23540;DHT22;11947;50.810;4.394;2022-11-15T02:13:58;12.60;99.90
23540;DHT22;11947;50.810;4.394;2022-11-15T02:16:54;12.50;99.90
23540;DHT22;11947;50.810;4.394;2022-11-15T02:36:07;12.50;99.90
23540;DHT22;11947;50.810;4.394;2022-11-15T02:38:58;12.60;99.90
23540;DHT22;11947;50.810;4.394;2022-11-15T02:41:41;12.60;99.90
23540;DHT22;11947;50.810;4.394;2022-11-15T02:44:26;12.40;99.90
23540;DHT22;11947;50.810;4.394;2022-11-15T02:47:15;12.40;99.90
23540;DHT22;11947;50.810;4.394;2022-11-15T02:49:57;12.50;99.90
23540;DHT22;11947;50.810;4.394;2022-11-15T02:52:24;12.50;99.90
23540;DHT22;11947;50.810;4.394;2022-11-15T02:55:00;12.50;99.90
23540;DHT22;11947;50.810;4.394;2022-11-15T02:57:44;12.40;99.90
23540;DHT22;11947;50.810;4.394;2022-11-15T03:03:29;12.50;99.90
23540;DHT22;11947;50.810;4.394;2022-11-15T03:11:20;12.40;99.90
23540;DHT22;11947;50.810;4.394;2022-11-15T03:14:01;12.40;99.90
23540;DHT22;11947;50.810;4.394;2022-11-15T03:16:42;12.30;99.90
23540;DHT22;11947;50.810;4.394;2022-11-15T03:21:51;12.50;99.90
23540;DHT22;11947;50.810;4.394;2022-11-15T03:24:19;12.40;99.90
23540;DHT22;11947;50.810;4.394;2022-11-15T03:26:48;12.40;99.90
23540;DHT22;11947;50.810;4.394;2022-11-15T03:29:19;12.40;99.90
23540;DHT22;11947;50.810;4.394;2022-11-15T03:31:52;12.30;99.90
23540;DHT22;11947;50.810;4.394;2022-11-15T03:36:56;12.50;99.90
23540;DHT22;11947;50.810;4.394;2022-11-15T03:39:23;12.40;99.90
23540;DHT22;11947;50.810;4.394;2022-11-15T03:42:22;12.30;99.90
23540;DHT22;11947;50.810;4.394;2022-11-15T03:47:54;12.30;99.90
23540;DHT22;11947;50.810;4.394;2022-11-15T03:50:24;12.30;99.90
23540;DHT22;11947;50.810;4.394;2022-11-15T03:52:50;12.30;99.90
23540;DHT22;11947;50.810;4.394;2022-11-15T03:55:20;12.30;99.90
23540;DHT22;11947;50.810;4.394;2022-11-15T03:57:49;12.20;99.90
23540;DHT22;11947;50.810;4.394;2022-11-15T04:00:15;12.30;99.90
23540;DHT22;11947;50.810;4.394;2022-11-15T04:02:41;12.20;99.90
23540;DHT22;11947;50.810;4.394;2022-11-15T04:05:07;12.20;99.90
23540;DHT22;11947;50.810;4.394;2022-11-15T04:07:33;12.10;99.90
23540;DHT22;11947;50.810;4.394;2022-11-15T04:09:59;12.20;99.90
23540;DHT22;11947;50.810;4.394;2022-11-15T04:12:37;12.10;99.90
23540;DHT22;11947;50.810;4.394;2022-11-15T04:15:11;12.10;99.90
23540;DHT22;11947;50.810;4.394;2022-11-15T04:17:41;12.10;99.90
23540;DHT22;11947;50.810;4.394;2022-11-15T04:20:19;12.00;99.90
23540;DHT22;11947;50.810;4.394;2022-11-15T04:23:05;12.10;99.90
23540;DHT22;11947;50.810;4.394;2022-11-15T04:25:52;12.20;99.90
23540;DHT22;11947;50.810;4.394;2022-11-15T04:28:19;12.00;99.90
23540;DHT22;11947;50.810;4.394;2022-11-15T04:30:45;12.00;99.90
23540;DHT22;11947;50.810;4.394;2022-11-15T04:33:10;12.10;99.90
23540;DHT22;11947;50.810;4.394;2022-11-15T04:35:36;12.10;99.90
23540;DHT22;11947;50.810;4.394;2022-11-15T04:38:03;12.00;99.90
23540;DHT22;11947;50.810;4.394;2022-11-15T04:40:29;11.90;99.90
23540;DHT22;11947;50.810;4.394;2022-11-15T04:42:55;11.80;99.90
23540;DHT22;11947;50.810;4.394;2022-11-15T04:45:21;11.70;99.90
23540;DHT22;11947;50.810;4.394;2022-11-15T04:47:47;11.70;99.90
23540;DHT22;11947;50.810;4.394;2022-11-15T04:50:14;11.60;99.90
23540;DHT22;11947;50.810;4.394;2022-11-15T04:52:41;11.50;99.90
23540;DHT22;11947;50.810;4.394;2022-11-15T04:55:08;11.70;99.90
23540;DHT22;11947;50.810;4.394;2022-11-15T04:57:34;11.60;99.90
23540;DHT22;11947;50.810;4.394;2022-11-15T05:00:00;11.80;99.90
23540;DHT22;11947;50.810;4.394;2022-11-15T05:02:26;11.70;99.90
23540;DHT22;11947;50.810;4.394;2022-11-15T05:05:12;11.40;99.90
23540;DHT22;11947;50.810;4.394;2022-11-15T05:07:37;11.30;99.90
23540;DHT22;11947;50.810;4.394;2022-11-15T05:10:03;11.30;99.90
23540;DHT22;11947;50.810;4.394;2022-11-15T05:12:29;11.20;99.90
23540;DHT22;11947;50.810;4.394;2022-11-15T05:14:54;11.20;99.90
23540;DHT22;11947;50.810;4.394;2022-11-15T05:17:20;11.20;99.90
23540;DHT22;11947;50.810;4.394;2022-11-15T05:19:46;11.10;99.90
23540;DHT22;11947;50.810;4.394;2022-11-15T05:22:11;11.20;99.90
23540;DHT22;11947;50.810;4.394;2022-11-15T05:24:37;11.00;99.90
23540;DHT22;11947;50.810;4.394;2022-11-15T05:27:03;10.90;99.90
23540;DHT22;11947;50.810;4.394;2022-11-15T05:29:28;11.00;99.90
23540;DHT22;11947;50.810;4.394;2022-11-15T05:31:54;11.00;99.90
23540;DHT22;11947;50.810;4.394;2022-11-15T05:34:19;11.10;99.90
23540;DHT22;11947;50.810;4.394;2022-11-15T05:36:48;11.00;99.90
23540;DHT22;11947;50.810;4.394;2022-11-15T05:39:14;10.90;99.90
23540;DHT22;11947;50.810;4.394;2022-11-15T05:41:55;10.80;99.90
23540;DHT22;11947;50.810;4.394;2022-11-15T05:44:24;10.80;99.90
23540;DHT22;11947;50.810;4.394;2022-11-15T05:46:53;10.90;99.90
23540;DHT22;11947;50.810;4.394;2022-11-15T05:49:22;10.90;99.90
23540;DHT22;11947;50.810;4.394;2022-11-15T05:51:49;10.70;99.90
23540;DHT22;11947;50.810;4.394;2022-11-15T05:54:17;10.70;99.90
23540;DHT22;11947;50.810;4.394;2022-11-15T05:56:43;10.70;99.90
23540;DHT22;11947;50.810;4.394;2022-11-15T05:59:09;10.60;99.90
23540;DHT22;11947;50.810;4.394;2022-11-15T06:01:36;10.60;99.90
23540;DHT22;11947;50.810;4.394;2022-11-15T06:04:02;10.50;99.90
23540;DHT22;11947;50.810;4.394;2022-11-15T06:06:28;10.40;99.90
23540;DHT22;11947;50.810;4.394;2022-11-15T06:08:54;10.30;99.90
23540;DHT22;11947;50.810;4.394;2022-11-15T06:11:20;10.30;99.90
23540;DHT22;11947;50.810;4.394;2022-11-15T06:13:45;10.20;99.90
23540;DHT22;11947;50.810;4.394;2022-11-15T06:16:11;10.20;99.90
23540;DHT22;11947;50.810;4.394;2022-11-15T06:18:37;10.20;99.90
23540;DHT22;11947;50.810;4.394;2022-11-15T06:21:03;10.20;99.90
23540;DHT22;11947;50.810;4.394;2022-11-15T06:23:32;10.10;99.90
23540;DHT22;11947;50.810;4.394;2022-11-15T06:25:58;10.20;99.90
23540;DHT22;11947;50.810;4.394;2022-11-15T06:28:27;10.10;99.90
23540;DHT22;11947;50.810;4.394;2022-11-15T06:30:53;10.10;99.90
23540;DHT22;11947;50.810;4.394;2022-11-15T06:33:18;10.00;99.90
23540;DHT22;11947;50.810;4.394;2022-11-15T06:35:44;10.00;99.90
23540;DHT22;11947;50.810;4.394;2022-11-15T06:38:10;9.90;99.90
23540;DHT22;11947;50.810;4.394;2022-11-15T06:40:39;9.80;99.90
23540;DHT22;11947;50.810;4.394;2022-11-15T06:43:05;9.80;99.90
23540;DHT22;11947;50.810;4.394;2022-11-15T06:45:31;9.70;99.90
23540;DHT22;11947;50.810;4.394;2022-11-15T06:47:57;9.70;99.90
23540;DHT22;11947;50.810;4.394;2022-11-15T06:50:23;9.70;99.90
23540;DHT22;11947;50.810;4.394;2022-11-15T06:52:49;9.80;99.90
23540;DHT22;11947;50.810;4.394;2022-11-15T06:55:15;9.90;99.90
23540;DHT22;11947;50.810;4.394;2022-11-15T06:57:50;9.90;99.90
23540;DHT22;11947;50.810;4.394;2022-11-15T07:00:19;9.80;99.90
23540;DHT22;11947;50.810;4.394;2022-11-15T07:02:45;9.70;99.90
23540;DHT22;11947;50.810;4.394;2022-11-15T07:05:11;9.70;99.90
23540;DHT22;11947;50.810;4.394;2022-11-15T07:07:37;9.70;99.90
23540;DHT22;11947;50.810;4.394;2022-11-15T07:10:03;9.50;99.90
23540;DHT22;11947;50.810;4.394;2022-11-15T07:12:29;9.60;99.90
23540;DHT22;11947;50.810;4.394;2022-11-15T07:14:55;9.60;99.90
23540;DHT22;11947;50.810;4.394;2022-11-15T07:17:22;9.60;99.90
23540;DHT22;11947;50.810;4.394;2022-11-15T07:19:47;9.70;99.90
23540;DHT22;11947;50.810;4.394;2022-11-15T07:22:13;9.70;99.90
23540;DHT22;11947;50.810;4.394;2022-11-15T07:24:38;9.50;99.90
23540;DHT22;11947;50.810;4.394;2022-11-15T07:27:04;9.60;99.90
23540;DHT22;11947;50.810;4.394;2022-11-15T07:29:30;9.50;99.90
23540;DHT22;11947;50.810;4.394;2022-11-15T07:31:55;9.40;99.90
23540;DHT22;11947;50.810;4.394;2022-11-15T07:34:21;9.50;99.90
23540;DHT22;11947;50.810;4.394;2022-11-15T07:36:48;9.60;99.90
23540;DHT22;11947;50.810;4.394;2022-11-15T07:39:14;9.60;99.90
23540;DHT22;11947;50.810;4.394;2022-11-15T07:41:40;9.60;99.90
23540;DHT22;11947;50.810;4.394;2022-11-15T07:44:05;9.60;99.90
23540;DHT22;11947;50.810;4.394;2022-11-15T07:46:31;9.60;99.90
23540;DHT22;11947;50.810;4.394;2022-11-15T07:48:57;9.80;99.90
23540;DHT22;11947;50.810;4.394;2022-11-15T07:51:23;9.90;99.90
23540;DHT22;11947;50.810;4.394;2022-11-15T07:53:48;9.80;99.90
23540;DHT22;11947;50.810;4.394;2022-11-15T07:56:32;9.90;99.90
23540;DHT22;11947;50.810;4.394;2022-11-15T07:58:57;9.90;99.90
23540;DHT22;11947;50.810;4.394;2022-11-15T08:01:24;9.90;99.90
23540;DHT22;11947;50.810;4.394;2022-11-15T08:03:50;9.90;99.90
23540;DHT22;11947;50.810;4.394;2022-11-15T08:06:15;10.00;99.90
23540;DHT22;11947;50.810;4.394;2022-11-15T08:08:46;10.00;99.90
23540;DHT22;11947;50.810;4.394;2022-11-15T08:11:12;10.00;99.90
23540;DHT22;11947;50.810;4.394;2022-11-15T08:13:38;10.00;99.90
23540;DHT22;11947;50.810;4.394;2022-11-15T08:16:04;10.00;99.90
23540;DHT22;11947;50.810;4.394;2022-11-15T08:18:30;10.00;99.90
23540;DHT22;11947;50.810;4.394;2022-11-15T08:21:00;10.10;99.90
23540;DHT22;11947;50.810;4.394;2022-11-15T08:23:28;10.10;99.90
23540;DHT22;11947;50.810;4.394;2022-11-15T08:26:00;10.30;99.90
23540;DHT22;11947;50.810;4.394;2022-11-15T08:28:29;10.40;99.90
23540;DHT22;11947;50.810;4.394;2022-11-15T08:30:55;10.40;99.90
23540;DHT22;11947;50.810;4.394;2022-11-15T08:33:20;10.30;99.90
23540;DHT22;11947;50.810;4.394;2022-11-15T08:35:49;10.30;99.90
23540;DHT22;11947;50.810;4.394;2022-11-15T08:38:15;10.30;99.90
23540;DHT22;11947;50.810;4.394;2022-11-15T08:40:41;10.30;99.90
23540;DHT22;11947;50.810;4.394;2022-11-15T08:43:06;10.40;99.90
23540;DHT22;11947;50.810;4.394;2022-11-15T08:45:34;10.50;99.90
23540;DHT22;11947;50.810;4.394;2022-11-15T08:48:01;10.50;99.90
23540;DHT22;11947;50.810;4.394;2022-11-15T08:50:27;10.50;99.90
23540;DHT22;11947;50.810;4.394;2022-11-15T08:52:53;10.60;99.90
23540;DHT22;11947;50.810;4.394;2022-11-15T08:55:18;10.70;99.90
23540;DHT22;11947;50.810;4.394;2022-11-15T08:57:44;10.50;99.90
23540;DHT22;11947;50.810;4.394;2022-11-15T09:00:11;10.50;99.90
23540;DHT22;11947;50.810;4.394;2022-11-15T09:02:38;10.60;99.90
23540;DHT22;11947;50.810;4.394;2022-11-15T09:05:07;10.60;99.90
23540;DHT22;11947;50.810;4.394;2022-11-15T09:07:33;10.70;99.90
23540;DHT22;11947;50.810;4.394;2022-11-15T09:09:59;10.90;99.90
23540;DHT22;11947;50.810;4.394;2022-11-15T09:12:24;10.90;99.90
23540;DHT22;11947;50.810;4.394;2022-11-15T09:14:51;11.00;99.90
23540;DHT22;11947;50.810;4.394;2022-11-15T09:17:16;10.90;99.90
23540;DHT22;11947;50.810;4.394;2022-11-15T09:19:42;11.00;99.90
23540;DHT22;11947;50.810;4.394;2022-11-15T09:22:08;10.90;99.90
23540;DHT22;11947;50.810;4.394;2022-11-15T09:24:34;11.00;99.90
23540;DHT22;11947;50.810;4.394;2022-11-15T09:27:03;11.00;99.90
23540;DHT22;11947;50.810;4.394;2022-11-15T09:29:28;11.10;99.90
23540;DHT22;11947;50.810;4.394;2022-11-15T09:31:54;11.10;99.90
23540;DHT22;11947;50.810;4.394;2022-11-15T09:34:20;11.20;99.90
23540;DHT22;11947;50.810;4.394;2022-11-15T09:36:46;11.10;99.90
23540;DHT22;11947;50.810;4.394;2022-11-15T09:39:15;11.20;99.90
23540;DHT22;11947;50.810;4.394;2022-11-15T09:42:18;11.40;99.90
23540;DHT22;11947;50.810;4.394;2022-11-15T09:50:39;11.40;99.90
23540;DHT22;11947;50.810;4.394;2022-11-15T09:53:12;11.70;99.90
23540;DHT22;11947;50.810;4.394;2022-11-15T09:55:52;11.70;99.90
23540;DHT22;11947;50.810;4.394;2022-11-15T10:01:47;11.70;99.90
23540;DHT22;11947;50.810;4.394;2022-11-15T10:04:15;12.00;99.90
23540;DHT22;11947;50.810;4.394;2022-11-15T10:06:46;12.00;99.90
23540;DHT22;11947;50.810;4.394;2022-11-15T10:09:42;12.10;99.90
23540;DHT22;11947;50.810;4.394;2022-11-15T10:12:09;12.10;99.90
23540;DHT22;11947;50.810;4.394;2022-11-15T10:14:38;12.20;99.90
23540;DHT22;11947;50.810;4.394;2022-11-15T10:23:06;12.30;99.90
23540;DHT22;11947;50.810;4.394;2022-11-15T10:25:35;12.40;99.90
23540;DHT22;11947;50.810;4.394;2022-11-15T10:28:21;12.50;99.90
23540;DHT22;11947;50.810;4.394;2022-11-15T10:30:53;12.60;99.90
23540;DHT22;11947;50.810;4.394;2022-11-15T10:33:32;12.70;99.90
23540;DHT22;11947;50.810;4.394;2022-11-15T10:38:50;12.80;99.90
23540;DHT22;11947;50.810;4.394;2022-11-15T10:41:17;12.90;99.90
23540;DHT22;11947;50.810;4.394;2022-11-15T10:43:44;13.00;99.90
23540;DHT22;11947;50.810;4.394;2022-11-15T10:46:21;13.20;99.90
23540;DHT22;11947;50.810;4.394;2022-11-15T10:48:47;13.30;99.90
23540;DHT22;11947;50.810;4.394;2022-11-15T10:51:29;13.10;99.90
23540;DHT22;11947;50.810;4.394;2022-11-15T10:53:58;13.20;99.90
23540;DHT22;11947;50.810;4.394;2022-11-15T10:56:26;13.10;99.90
23540;DHT22;11947;50.810;4.394;2022-11-15T10:58:56;13.10;99.90
23540;DHT22;11947;50.810;4.394;2022-11-15T11:01:27;13.10;99.90
23540;DHT22;11947;50.810;4.394;2022-11-15T11:04:05;13.40;99.90
23540;DHT22;11947;50.810;4.394;2022-11-15T11:06:52;13.40;99.90
23540;DHT22;11947;50.810;4.394;2022-11-15T11:09:39;13.50;99.90
23540;DHT22;11947;50.810;4.394;2022-11-15T11:12:11;13.70;99.90
23540;DHT22;11947;50.810;4.394;2022-11-15T11:14:38;13.70;99.90
23540;DHT22;11947;50.810;4.394;2022-11-15T11:20:38;13.70;99.90
23540;DHT22;11947;50.810;4.394;2022-11-15T11:23:29;13.80;99.90
23540;DHT22;11947;50.810;4.394;2022-11-15T11:35:17;14.20;99.90
23540;DHT22;11947;50.810;4.394;2022-11-15T11:37:52;14.20;99.90
23540;DHT22;11947;50.810;4.394;2022-11-15T11:40:31;14.30;99.90
23540;DHT22;11947;50.810;4.394;2022-11-15T11:43:04;14.10;99.90
23540;DHT22;11947;50.810;4.394;2022-11-15T11:48:38;14.10;99.90
23540;DHT22;11947;50.810;4.394;2022-11-15T11:53:48;13.60;99.90
23540;DHT22;11947;50.810;4.394;2022-11-15T11:56:26;13.40;99.90
23540;DHT22;11947;50.810;4.394;2022-11-15T11:58:55;13.30;99.90
23540;DHT22;11947;50.810;4.394;2022-11-15T12:01:37;13.30;99.90
23540;DHT22;11947;50.810;4.394;2022-11-15T12:04:16;13.40;99.90
23540;DHT22;11947;50.810;4.394;2022-11-15T12:06:59;13.40;99.90
23540;DHT22;11947;50.810;4.394;2022-11-15T12:09:39;13.70;99.90
23540;DHT22;11947;50.810;4.394;2022-11-15T12:15:23;13.60;99.90
23540;DHT22;11947;50.810;4.394;2022-11-15T12:17:50;13.60;99.90
23540;DHT22;11947;50.810;4.394;2022-11-15T12:20:24;13.50;99.90
23540;DHT22;11947;50.810;4.394;2022-11-15T12:25:58;13.50;99.90
23540;DHT22;11947;50.810;4.394;2022-11-15T12:34:16;13.60;99.90
23540;DHT22;11947;50.810;4.394;2022-11-15T12:36:54;13.50;99.90
23540;DHT22;11947;50.810;4.394;2022-11-15T12:39:20;13.40;99.90
23540;DHT22;11947;50.810;4.394;2022-11-15T12:47:23;13.40;99.90
23540;DHT22;11947;50.810;4.394;2022-11-15T12:49:49;13.40;99.90
23540;DHT22;11947;50.810;4.394;2022-11-15T12:52:16;13.50;99.90
23540;DHT22;11947;50.810;4.394;2022-11-15T12:59:55;13.70;99.90
23540;DHT22;11947;50.810;4.394;2022-11-15T13:02:30;13.70;99.90
23540;DHT22;11947;50.810;4.394;2022-11-15T13:10:28;13.80;99.90
23540;DHT22;11947;50.810;4.394;2022-11-15T13:15:39;14.00;99.90
23540;DHT22;11947;50.810;4.394;2022-11-15T13:20:52;14.00;99.90
23540;DHT22;11947;50.810;4.394;2022-11-15T13:23:18;14.00;99.90
23540;DHT22;11947;50.810;4.394;2022-11-15T13:26:08;13.80;99.90
23540;DHT22;11947;50.810;4.394;2022-11-15T13:28:41;13.80;99.90
23540;DHT22;11947;50.810;4.394;2022-11-15T13:31:30;13.80;99.90
23540;DHT22;11947;50.810;4.394;2022-11-15T13:34:03;13.70;99.90
23540;DHT22;11947;50.810;4.394;2022-11-15T13:36:33;13.70;99.90
23540;DHT22;11947;50.810;4.394;2022-11-15T13:39:12;13.70;99.90
23540;DHT22;11947;50.810;4.394;2022-11-15T13:41:48;13.60;99.90
23540;DHT22;11947;50.810;4.394;2022-11-15T13:44:29;13.50;99.90
23540;DHT22;11947;50.810;4.394;2022-11-15T13:47:14;13.50;99.90
23540;DHT22;11947;50.810;4.394;2022-11-15T13:49:40;13.50;99.90
23540;DHT22;11947;50.810;4.394;2022-11-15T13:52:09;13.40;99.90
23540;DHT22;11947;50.810;4.394;2022-11-15T13:54:48;13.50;99.90
23540;DHT22;11947;50.810;4.394;2022-11-15T13:59:49;13.60;99.90
23540;DHT22;11947;50.810;4.394;2022-11-15T14:02:29;13.70;99.90
23540;DHT22;11947;50.810;4.394;2022-11-15T14:05:02;13.60;99.90
23540;DHT22;11947;50.810;4.394;2022-11-15T14:07:30;13.50;99.90
23540;DHT22;11947;50.810;4.394;2022-11-15T14:09:57;13.60;99.90
23540;DHT22;11947;50.810;4.394;2022-11-15T14:12:27;13.50;99.90
23540;DHT22;11947;50.810;4.394;2022-11-15T14:14:53;13.50;99.90
23540;DHT22;11947;50.810;4.394;2022-11-15T14:19:55;13.40;99.90
23540;DHT22;11947;50.810;4.394;2022-11-15T14:22:25;13.40;99.90
23540;DHT22;11947;50.810;4.394;2022-11-15T14:25:21;13.30;99.90
23540;DHT22;11947;50.810;4.394;2022-11-15T14:30:47;13.20;99.90
23540;DHT22;11947;50.810;4.394;2022-11-15T14:35:52;13.00;99.90
23540;DHT22;11947;50.810;4.394;2022-11-15T14:40:54;12.90;99.90
23540;DHT22;11947;50.810;4.394;2022-11-15T14:43:21;12.90;99.90
23540;DHT22;11947;50.810;4.394;2022-11-15T14:45:47;12.70;99.90
23540;DHT22;11947;50.810;4.394;2022-11-15T14:48:12;12.60;99.90
23540;DHT22;11947;50.810;4.394;2022-11-15T14:50:38;12.70;99.90
23540;DHT22;11947;50.810;4.394;2022-11-15T14:53:04;12.70;99.90
23540;DHT22;11947;50.810;4.394;2022-11-15T14:55:32;12.70;99.90
23540;DHT22;11947;50.810;4.394;2022-11-15T14:58:03;12.70;99.90
23540;DHT22;11947;50.810;4.394;2022-11-15T15:00:40;12.70;99.90
23540;DHT22;11947;50.810;4.394;2022-11-15T15:05:45;12.60;99.90
23540;DHT22;11947;50.810;4.394;2022-11-15T15:08:11;12.50;99.90
23540;DHT22;11947;50.810;4.394;2022-11-15T15:10:42;12.70;99.90
23540;DHT22;11947;50.810;4.394;2022-11-15T15:13:23;12.60;99.90
23540;DHT22;11947;50.810;4.394;2022-11-15T15:15:51;12.60;99.90
23540;DHT22;11947;50.810;4.394;2022-11-15T15:18:18;12.40;99.90
23540;DHT22;11947;50.810;4.394;2022-11-15T15:20:45;12.30;99.90
23540;DHT22;11947;50.810;4.394;2022-11-15T15:23:18;12.30;99.90
23540;DHT22;11947;50.810;4.394;2022-11-15T15:25:45;12.30;99.90
23540;DHT22;11947;50.810;4.394;2022-11-15T15:28:12;12.20;99.90
23540;DHT22;11947;50.810;4.394;2022-11-15T15:30:38;12.10;99.90
23540;DHT22;11947;50.810;4.394;2022-11-15T15:33:03;12.20;99.90
23540;DHT22;11947;50.810;4.394;2022-11-15T15:35:31;12.10;99.90
23540;DHT22;11947;50.810;4.394;2022-11-15T15:38:04;12.10;99.90
23540;DHT22;11947;50.810;4.394;2022-11-15T15:40:32;12.00;99.90
23540;DHT22;11947;50.810;4.394;2022-11-15T15:42:58;12.10;99.90
23540;DHT22;11947;50.810;4.394;2022-11-15T15:45:25;12.10;99.90
23540;DHT22;11947;50.810;4.394;2022-11-15T15:51:43;12.00;99.90
23540;DHT22;11947;50.810;4.394;2022-11-15T15:54:09;11.90;99.90
23540;DHT22;11947;50.810;4.394;2022-11-15T15:56:45;11.90;99.90
23540;DHT22;11947;50.810;4.394;2022-11-15T15:59:25;11.90;99.90
23540;DHT22;11947;50.810;4.394;2022-11-15T16:01:51;12.00;99.90
23540;DHT22;11947;50.810;4.394;2022-11-15T16:04:17;12.00;99.90
23540;DHT22;11947;50.810;4.394;2022-11-15T16:06:49;12.00;99.90
23540;DHT22;11947;50.810;4.394;2022-11-15T16:09:30;11.90;99.90
23540;DHT22;11947;50.810;4.394;2022-11-15T16:12:17;11.90;99.90
23540;DHT22;11947;50.810;4.394;2022-11-15T16:14:43;11.90;99.90
23540;DHT22;11947;50.810;4.394;2022-11-15T16:17:20;11.90;99.90
23540;DHT22;11947;50.810;4.394;2022-11-15T16:19:46;11.90;99.90
23540;DHT22;11947;50.810;4.394;2022-11-15T16:22:26;12.00;99.90
23540;DHT22;11947;50.810;4.394;2022-11-15T16:24:56;12.00;99.90
23540;DHT22;11947;50.810;4.394;2022-11-15T16:27:26;11.90;99.90
23540;DHT22;11947;50.810;4.394;2022-11-15T16:30:01;12.00;99.90
23540;DHT22;11947;50.810;4.394;2022-11-15T16:32:51;11.90;99.90
23540;DHT22;11947;50.810;4.394;2022-11-15T16:49:34;12.00;99.90
23540;DHT22;11947;50.810;4.394;2022-11-15T16:54:35;11.90;99.90
23540;DHT22;11947;50.810;4.394;2022-11-15T17:00:41;12.00;99.90
23540;DHT22;11947;50.810;4.394;2022-11-15T17:03:10;12.00;99.90
23540;DHT22;11947;50.810;4.394;2022-11-15T17:05:36;11.90;99.90
23540;DHT22;11947;50.810;4.394;2022-11-15T17:08:02;12.10;99.90
23540;DHT22;11947;50.810;4.394;2022-11-15T17:10:41;12.10;99.90
23540;DHT22;11947;50.810;4.394;2022-11-15T17:21:54;12.20;99.90
23540;DHT22;11947;50.810;4.394;2022-11-15T17:24:53;12.10;99.90
23540;DHT22;11947;50.810;4.394;2022-11-15T17:27:19;12.10;99.90
23540;DHT22;11947;50.810;4.394;2022-11-15T17:29:49;12.10;99.90
23540;DHT22;11947;50.810;4.394;2022-11-15T17:32:15;12.10;99.90
23540;DHT22;11947;50.810;4.394;2022-11-15T17:35:10;12.10;99.90
23540;DHT22;11947;50.810;4.394;2022-11-15T17:37:59;12.10;99.90
23540;DHT22;11947;50.810;4.394;2022-11-15T17:40:52;12.20;99.90
23540;DHT22;11947;50.810;4.394;2022-11-15T17:47:32;12.20;99.90
23540;DHT22;11947;50.810;4.394;2022-11-15T17:53:10;12.10;99.90
23540;DHT22;11947;50.810;4.394;2022-11-15T17:59:36;12.10;99.90
23540;DHT22;11947;50.810;4.394;2022-11-15T18:06:33;12.10;99.90
23540;DHT22;11947;50.810;4.394;2022-11-15T18:09:05;12.20;99.90
23540;DHT22;11947;50.810;4.394;2022-11-15T18:11:44;12.00;99.90
23540;DHT22;11947;50.810;4.394;2022-11-15T18:14:29;12.00;99.90
23540;DHT22;11947;50.810;4.394;2022-11-15T18:17:10;12.00;99.90
23540;DHT22;11947;50.810;4.394;2022-11-15T18:19:43;12.20;99.90
23540;DHT22;11947;50.810;4.394;2022-11-15T18:22:20;12.20;99.90
23540;DHT22;11947;50.810;4.394;2022-11-15T18:25:01;12.20;99.90
23540;DHT22;11947;50.810;4.394;2022-11-15T18:27:30;12.10;99.90
23540;DHT22;11947;50.810;4.394;2022-11-15T18:30:11;12.10;99.90
23540;DHT22;11947;50.810;4.394;2022-11-15T18:32:40;12.10;99.90
23540;DHT22;11947;50.810;4.394;2022-11-15T18:35:09;12.10;99.90
23540;DHT22;11947;50.810;4.394;2022-11-15T18:37:55;12.00;99.90
23540;DHT22;11947;50.810;4.394;2022-11-15T18:40:43;12.10;99.90
23540;DHT22;11947;50.810;4.394;2022-11-15T18:43:14;12.10;99.90
23540;DHT22;11947;50.810;4.394;2022-11-15T18:45:48;12.20;99.90
23540;DHT22;11947;50.810;4.394;2022-11-15T18:58:57;12.30;99.90
23540;DHT22;11947;50.810;4.394;2022-11-15T19:01:28;12.20;99.90
23540;DHT22;11947;50.810;4.394;2022-11-15T19:03:57;12.30;99.90
23540;DHT22;11947;50.810;4.394;2022-11-15T19:06:31;12.30;99.90
23540;DHT22;11947;50.810;4.394;2022-11-15T19:09:12;12.30;99.90
23540;DHT22;11947;50.810;4.394;2022-11-15T19:11:42;12.40;99.90
23540;DHT22;11947;50.810;4.394;2022-11-15T19:14:10;12.30;99.90
23540;DHT22;11947;50.810;4.394;2022-11-15T19:16:38;12.20;99.90
23540;DHT22;11947;50.810;4.394;2022-11-15T19:19:06;12.30;99.90
23540;DHT22;11947;50.810;4.394;2022-11-15T19:21:33;12.20;99.90
23540;DHT22;11947;50.810;4.394;2022-11-15T19:23:59;12.30;99.90
23540;DHT22;11947;50.810;4.394;2022-11-15T19:26:26;12.30;99.90
23540;DHT22;11947;50.810;4.394;2022-11-15T19:29:04;12.40;99.90
23540;DHT22;11947;50.810;4.394;2022-11-15T19:49:35;12.40;99.90